sensor_id;sensor_type;location;lat;lon;timestamp;temperature;humidity
45319;DHT22;31057;48.498;32.260;2023-05-10T00:01:00;9.20;99.90
45319;DHT22;31057;48.498;32.260;2023-05-10T00:03:02;9.20;99.90
45319;DHT22;31057;48.498;32.260;2023-05-10T00:05:07;9.10;99.90
45319;DHT22;31057;48.498;32.260;2023-05-10T00:07:09;9.00;99.90
45319;DHT22;31057;48.498;32.260;2023-05-10T00:09:11;8.90;99.90
45319;DHT22;31057;48.498;32.260;2023-05-10T00:11:13;8.90;99.90
45319;DHT22;31057;48.498;32.260;2023-05-10T00:13:15;8.90;99.90
45319;DHT22;31057;48.498;32.260;2023-05-10T00:15:17;8.90;99.90
45319;DHT22;31057;48.498;32.260;2023-05-10T00:17:19;8.90;99.90
45319;DHT22;31057;48.498;32.260;2023-05-10T00:19:21;8.90;99.90
45319;DHT22;31057;48.498;32.260;2023-05-10T00:21:23;8.80;99.90
45319;DHT22;31057;48.498;32.260;2023-05-10T00:23:25;8.80;99.90
45319;DHT22;31057;48.498;32.260;2023-05-10T00:25:27;8.80;99.90
45319;DHT22;31057;48.498;32.260;2023-05-10T00:27:29;8.70;99.90
45319;DHT22;31057;48.498;32.260;2023-05-10T00:29:31;8.70;99.90
45319;DHT22;31057;48.498;32.260;2023-05-10T00:31:33;8.70;99.90
45319;DHT22;31057;48.498;32.260;2023-05-10T00:33:35;8.70;99.90
45319;DHT22;31057;48.498;32.260;2023-05-10T00:35:37;8.70;99.90
45319;DHT22;31057;48.498;32.260;2023-05-10T00:37:39;8.70;99.90
45319;DHT22;31057;48.498;32.260;2023-05-10T00:39:41;8.60;99.90
45319;DHT22;31057;48.498;32.260;2023-05-10T00:41:43;8.60;99.90
45319;DHT22;31057;48.498;32.260;2023-05-10T00:43:45;8.70;99.90
45319;DHT22;31057;48.498;32.260;2023-05-10T00:45:47;8.60;99.90
45319;DHT22;31057;48.498;32.260;2023-05-10T00:47:49;8.60;99.90
45319;DHT22;31057;48.498;32.260;2023-05-10T00:49:53;8.70;99.90
45319;DHT22;31057;48.498;32.260;2023-05-10T00:51:55;8.60;99.90
45319;DHT22;31057;48.498;32.260;2023-05-10T00:53:58;8.60;99.90
45319;DHT22;31057;48.498;32.260;2023-05-10T00:56:01;8.50;99.90
45319;DHT22;31057;48.498;32.260;2023-05-10T00:58:04;8.50;99.90
45319;DHT22;31057;48.498;32.260;2023-05-10T01:00:07;8.40;99.90
45319;DHT22;31057;48.498;32.260;2023-05-10T01:02:09;8.40;99.90
45319;DHT22;31057;48.498;32.260;2023-05-10T01:04:12;8.40;99.90
45319;DHT22;31057;48.498;32.260;2023-05-10T01:06:15;8.40;99.90
45319;DHT22;31057;48.498;32.260;2023-05-10T01:08:17;8.40;99.90
45319;DHT22;31057;48.498;32.260;2023-05-10T01:10:19;8.40;99.90
45319;DHT22;31057;48.498;32.260;2023-05-10T01:12:21;8.50;99.90
45319;DHT22;31057;48.498;32.260;2023-05-10T01:14:24;8.50;99.90
45319;DHT22;31057;48.498;32.260;2023-05-10T01:16:27;8.50;99.90
45319;DHT22;31057;48.498;32.260;2023-05-10T01:18:31;8.50;99.90
45319;DHT22;31057;48.498;32.260;2023-05-10T01:20:39;8.40;99.90
45319;DHT22;31057;48.498;32.260;2023-05-10T01:25:34;8.40;99.90
45319;DHT22;31057;48.498;32.260;2023-05-10T01:35:00;8.30;99.90
45319;DHT22;31057;48.498;32.260;2023-05-10T01:37:15;8.30;99.90
45319;DHT22;31057;48.498;32.260;2023-05-10T01:39:45;8.30;99.90
45319;DHT22;31057;48.498;32.260;2023-05-10T01:41:55;8.20;99.90
45319;DHT22;31057;48.498;32.260;2023-05-10T01:44:29;8.20;99.90
45319;DHT22;31057;48.498;32.260;2023-05-10T01:46:36;8.20;99.90
45319;DHT22;31057;48.498;32.260;2023-05-10T01:48:47;8.20;99.90
45319;DHT22;31057;48.498;32.260;2023-05-10T01:50:51;8.10;99.90
45319;DHT22;31057;48.498;32.260;2023-05-10T01:52:55;8.20;99.90
45319;DHT22;31057;48.498;32.260;2023-05-10T01:55:09;8.20;99.90
45319;DHT22;31057;48.498;32.260;2023-05-10T01:57:13;8.20;99.90
45319;DHT22;31057;48.498;32.260;2023-05-10T01:59:18;8.20;99.90
45319;DHT22;31057;48.498;32.260;2023-05-10T02:01:21;8.20;99.90
45319;DHT22;31057;48.498;32.260;2023-05-10T02:03:25;8.20;99.90
45319;DHT22;31057;48.498;32.260;2023-05-10T02:05:29;8.10;99.90
45319;DHT22;31057;48.498;32.260;2023-05-10T02:07:32;8.20;99.90
45319;DHT22;31057;48.498;32.260;2023-05-10T02:09:37;8.20;99.90
45319;DHT22;31057;48.498;32.260;2023-05-10T02:11:42;8.20;99.90
45319;DHT22;31057;48.498;32.260;2023-05-10T02:13:44;8.10;99.90
45319;DHT22;31057;48.498;32.260;2023-05-10T02:15:49;8.20;99.90
45319;DHT22;31057;48.498;32.260;2023-05-10T02:17:54;8.20;99.90
45319;DHT22;31057;48.498;32.260;2023-05-10T02:19:58;8.20;99.90
45319;DHT22;31057;48.498;32.260;2023-05-10T02:22:01;8.20;99.90
45319;DHT22;31057;48.498;32.260;2023-05-10T02:24:05;8.10;99.90
45319;DHT22;31057;48.498;32.260;2023-05-10T02:26:08;8.10;99.90
45319;DHT22;31057;48.498;32.260;2023-05-10T02:28:11;8.20;99.90
45319;DHT22;31057;48.498;32.260;2023-05-10T02:30:15;8.30;99.90
45319;DHT22;31057;48.498;32.260;2023-05-10T02:32:19;8.30;99.90
45319;DHT22;31057;48.498;32.260;2023-05-10T02:34:26;8.40;99.90
45319;DHT22;31057;48.498;32.260;2023-05-10T02:36:29;8.50;99.90
45319;DHT22;31057;48.498;32.260;2023-05-10T02:38:32;8.40;99.90
45319;DHT22;31057;48.498;32.260;2023-05-10T02:40:35;8.40;99.90
45319;DHT22;31057;48.498;32.260;2023-05-10T02:42:41;8.40;99.90
45319;DHT22;31057;48.498;32.260;2023-05-10T02:44:46;8.50;99.90
45319;DHT22;31057;48.498;32.260;2023-05-10T02:46:49;8.30;99.90
45319;DHT22;31057;48.498;32.260;2023-05-10T02:48:51;8.20;99.90
45319;DHT22;31057;48.498;32.260;2023-05-10T02:50:54;8.10;99.90
45319;DHT22;31057;48.498;32.260;2023-05-10T02:53:01;8.10;99.90
45319;DHT22;31057;48.498;32.260;2023-05-10T02:55:05;8.10;99.90
45319;DHT22;31057;48.498;32.260;2023-05-10T02:57:08;8.10;99.90
45319;DHT22;31057;48.498;32.260;2023-05-10T02:59:12;8.10;99.90
45319;DHT22;31057;48.498;32.260;2023-05-10T03:01:14;8.20;99.90
45319;DHT22;31057;48.498;32.260;2023-05-10T03:03:17;8.30;99.90
45319;DHT22;31057;48.498;32.260;2023-05-10T03:05:19;8.20;99.90
45319;DHT22;31057;48.498;32.260;2023-05-10T03:07:21;8.30;99.90
45319;DHT22;31057;48.498;32.260;2023-05-10T03:09:23;8.30;99.90
45319;DHT22;31057;48.498;32.260;2023-05-10T03:14:03;8.30;99.90
45319;DHT22;31057;48.498;32.260;2023-05-10T03:16:14;8.30;99.90
45319;DHT22;31057;48.498;32.260;2023-05-10T03:18:28;8.30;99.90
45319;DHT22;31057;48.498;32.260;2023-05-10T03:20:38;8.40;99.90
45319;DHT22;31057;48.498;32.260;2023-05-10T03:25:12;8.30;99.90
45319;DHT22;31057;48.498;32.260;2023-05-10T03:27:17;8.40;99.90
45319;DHT22;31057;48.498;32.260;2023-05-10T03:29:20;8.40;99.90
45319;DHT22;31057;48.498;32.260;2023-05-10T03:31:23;8.40;99.90
45319;DHT22;31057;48.498;32.260;2023-05-10T03:33:25;8.40;99.90
45319;DHT22;31057;48.498;32.260;2023-05-10T03:35:27;8.50;99.90
45319;DHT22;31057;48.498;32.260;2023-05-10T03:37:28;8.50;99.90
45319;DHT22;31057;48.498;32.260;2023-05-10T03:39:30;8.60;99.90
45319;DHT22;31057;48.498;32.260;2023-05-10T03:41:32;8.60;99.90
45319;DHT22;31057;48.498;32.260;2023-05-10T03:43:34;8.60;99.90
45319;DHT22;31057;48.498;32.260;2023-05-10T03:45:36;8.70;99.90
45319;DHT22;31057;48.498;32.260;2023-05-10T03:47:38;8.70;99.90
45319;DHT22;31057;48.498;32.260;2023-05-10T03:49:40;8.70;99.90
45319;DHT22;31057;48.498;32.260;2023-05-10T03:51:42;8.80;99.90
45319;DHT22;31057;48.498;32.260;2023-05-10T03:53:44;8.90;99.90
45319;DHT22;31057;48.498;32.260;2023-05-10T03:55:46;9.00;99.90
45319;DHT22;31057;48.498;32.260;2023-05-10T03:57:48;9.10;99.90
45319;DHT22;31057;48.498;32.260;2023-05-10T03:59:51;9.20;99.90
45319;DHT22;31057;48.498;32.260;2023-05-10T04:01:53;9.30;99.90
45319;DHT22;31057;48.498;32.260;2023-05-10T04:03:55;9.40;99.90
45319;DHT22;31057;48.498;32.260;2023-05-10T04:06:00;9.50;99.90
45319;DHT22;31057;48.498;32.260;2023-05-10T04:08:03;9.50;99.90
45319;DHT22;31057;48.498;32.260;2023-05-10T04:10:05;9.50;99.90
45319;DHT22;31057;48.498;32.260;2023-05-10T04:12:08;9.60;99.90
45319;DHT22;31057;48.498;32.260;2023-05-10T04:14:11;9.80;99.90
45319;DHT22;31057;48.498;32.260;2023-05-10T04:16:13;9.80;99.90
45319;DHT22;31057;48.498;32.260;2023-05-10T04:18:15;9.80;99.90
45319;DHT22;31057;48.498;32.260;2023-05-10T04:20:18;9.80;99.90
45319;DHT22;31057;48.498;32.260;2023-05-10T04:22:20;9.90;99.90
45319;DHT22;31057;48.498;32.260;2023-05-10T04:24:22;9.90;99.90
45319;DHT22;31057;48.498;32.260;2023-05-10T04:26:24;10.00;99.90
45319;DHT22;31057;48.498;32.260;2023-05-10T04:28:27;10.10;99.90
45319;DHT22;31057;48.498;32.260;2023-05-10T04:30:29;10.20;99.90
45319;DHT22;31057;48.498;32.260;2023-05-10T04:32:31;10.20;99.90
45319;DHT22;31057;48.498;32.260;2023-05-10T04:34:33;10.10;99.90
45319;DHT22;31057;48.498;32.260;2023-05-10T04:36:35;10.30;99.90
45319;DHT22;31057;48.498;32.260;2023-05-10T04:38:38;10.30;99.90
45319;DHT22;31057;48.498;32.260;2023-05-10T04:40:40;10.60;99.90
45319;DHT22;31057;48.498;32.260;2023-05-10T04:42:42;10.50;99.90
45319;DHT22;31057;48.498;32.260;2023-05-10T04:44:45;10.60;99.90
45319;DHT22;31057;48.498;32.260;2023-05-10T04:46:47;10.60;99.90
45319;DHT22;31057;48.498;32.260;2023-05-10T04:48:48;10.80;99.90
45319;DHT22;31057;48.498;32.260;2023-05-10T04:50:51;10.90;99.90
45319;DHT22;31057;48.498;32.260;2023-05-10T04:52:53;11.10;99.90
45319;DHT22;31057;48.498;32.260;2023-05-10T04:54:58;10.90;99.90
45319;DHT22;31057;48.498;32.260;2023-05-10T04:56:59;11.00;99.90
45319;DHT22;31057;48.498;32.260;2023-05-10T04:59:01;11.30;99.90
45319;DHT22;31057;48.498;32.260;2023-05-10T05:01:08;11.40;99.90
45319;DHT22;31057;48.498;32.260;2023-05-10T05:03:12;11.20;99.90
45319;DHT22;31057;48.498;32.260;2023-05-10T05:05:14;11.40;99.90
45319;DHT22;31057;48.498;32.260;2023-05-10T05:07:15;11.20;99.90
45319;DHT22;31057;48.498;32.260;2023-05-10T05:09:17;11.40;99.90
45319;DHT22;31057;48.498;32.260;2023-05-10T05:11:19;11.70;99.90
45319;DHT22;31057;48.498;32.260;2023-05-10T05:13:22;11.70;99.90
45319;DHT22;31057;48.498;32.260;2023-05-10T05:15:24;11.90;99.90
45319;DHT22;31057;48.498;32.260;2023-05-10T05:17:26;12.10;99.90
45319;DHT22;31057;48.498;32.260;2023-05-10T05:19:31;12.30;99.90
45319;DHT22;31057;48.498;32.260;2023-05-10T05:21:33;12.30;99.90
45319;DHT22;31057;48.498;32.260;2023-05-10T05:23:34;12.30;99.90
45319;DHT22;31057;48.498;32.260;2023-05-10T05:25:36;12.10;99.90
45319;DHT22;31057;48.498;32.260;2023-05-10T05:27:38;12.10;99.90
45319;DHT22;31057;48.498;32.260;2023-05-10T05:29:40;12.50;99.90
45319;DHT22;31057;48.498;32.260;2023-05-10T05:31:42;12.30;99.90
45319;DHT22;31057;48.498;32.260;2023-05-10T05:33:44;12.60;99.90
45319;DHT22;31057;48.498;32.260;2023-05-10T05:35:47;12.90;99.90
45319;DHT22;31057;48.498;32.260;2023-05-10T05:37:52;13.10;99.90
45319;DHT22;31057;48.498;32.260;2023-05-10T05:39:55;13.10;99.90
45319;DHT22;31057;48.498;32.260;2023-05-10T05:41:57;12.70;99.90
45319;DHT22;31057;48.498;32.260;2023-05-10T05:44:00;13.00;99.90
45319;DHT22;31057;48.498;32.260;2023-05-10T05:46:01;13.30;99.90
45319;DHT22;31057;48.498;32.260;2023-05-10T05:48:04;13.60;99.90
45319;DHT22;31057;48.498;32.260;2023-05-10T05:50:06;13.80;99.90
45319;DHT22;31057;48.498;32.260;2023-05-10T05:52:08;14.00;99.90
45319;DHT22;31057;48.498;32.260;2023-05-10T05:54:10;14.10;99.90
45319;DHT22;31057;48.498;32.260;2023-05-10T05:56:12;14.30;99.90
45319;DHT22;31057;48.498;32.260;2023-05-10T05:58:14;13.90;99.90
45319;DHT22;31057;48.498;32.260;2023-05-10T06:00:16;13.90;99.90
45319;DHT22;31057;48.498;32.260;2023-05-10T06:02:18;13.90;99.90
45319;DHT22;31057;48.498;32.260;2023-05-10T06:04:20;13.90;99.90
45319;DHT22;31057;48.498;32.260;2023-05-10T06:06:22;13.60;99.90
45319;DHT22;31057;48.498;32.260;2023-05-10T06:08:24;14.30;99.90
45319;DHT22;31057;48.498;32.260;2023-05-10T06:10:27;14.30;99.90
45319;DHT22;31057;48.498;32.260;2023-05-10T06:12:29;13.80;99.90
45319;DHT22;31057;48.498;32.260;2023-05-10T06:14:31;14.40;99.90
45319;DHT22;31057;48.498;32.260;2023-05-10T06:16:33;14.50;99.90
45319;DHT22;31057;48.498;32.260;2023-05-10T06:18:35;14.80;99.90
45319;DHT22;31057;48.498;32.260;2023-05-10T06:20:37;14.60;99.90
45319;DHT22;31057;48.498;32.260;2023-05-10T06:22:39;13.90;99.90
45319;DHT22;31057;48.498;32.260;2023-05-10T06:24:41;14.30;99.90
45319;DHT22;31057;48.498;32.260;2023-05-10T06:26:43;14.10;99.90
45319;DHT22;31057;48.498;32.260;2023-05-10T06:28:45;14.40;99.90
45319;DHT22;31057;48.498;32.260;2023-05-10T06:30:47;14.10;99.90
45319;DHT22;31057;48.498;32.260;2023-05-10T06:32:49;13.60;99.90
45319;DHT22;31057;48.498;32.260;2023-05-10T06:34:51;13.50;99.90
45319;DHT22;31057;48.498;32.260;2023-05-10T06:36:53;13.40;99.90
45319;DHT22;31057;48.498;32.260;2023-05-10T06:38:55;13.30;99.90
45319;DHT22;31057;48.498;32.260;2023-05-10T06:40:57;13.30;99.90
45319;DHT22;31057;48.498;32.260;2023-05-10T06:42:59;13.40;99.90
45319;DHT22;31057;48.498;32.260;2023-05-10T06:45:01;13.40;99.90
45319;DHT22;31057;48.498;32.260;2023-05-10T06:47:03;13.70;99.90
45319;DHT22;31057;48.498;32.260;2023-05-10T06:49:05;14.00;99.90
45319;DHT22;31057;48.498;32.260;2023-05-10T06:51:07;13.80;99.90
45319;DHT22;31057;48.498;32.260;2023-05-10T06:53:09;14.40;99.90
45319;DHT22;31057;48.498;32.260;2023-05-10T06:55:11;14.70;99.90
45319;DHT22;31057;48.498;32.260;2023-05-10T06:57:13;14.10;99.90
45319;DHT22;31057;48.498;32.260;2023-05-10T06:59:32;13.90;99.90
45319;DHT22;31057;48.498;32.260;2023-05-10T07:01:34;14.10;99.90
45319;DHT22;31057;48.498;32.260;2023-05-10T07:03:35;14.10;99.90
45319;DHT22;31057;48.498;32.260;2023-05-10T07:05:37;14.10;99.90
45319;DHT22;31057;48.498;32.260;2023-05-10T07:07:40;14.50;99.90
45319;DHT22;31057;48.498;32.260;2023-05-10T07:09:42;14.40;99.90
45319;DHT22;31057;48.498;32.260;2023-05-10T07:11:44;14.70;99.90
45319;DHT22;31057;48.498;32.260;2023-05-10T07:13:46;14.90;99.90
45319;DHT22;31057;48.498;32.260;2023-05-10T07:15:48;14.70;99.90
45319;DHT22;31057;48.498;32.260;2023-05-10T07:17:50;14.40;99.90
45319;DHT22;31057;48.498;32.260;2023-05-10T07:19:53;14.80;99.90
45319;DHT22;31057;48.498;32.260;2023-05-10T07:21:55;15.30;99.90
45319;DHT22;31057;48.498;32.260;2023-05-10T07:23:57;15.60;99.90
45319;DHT22;31057;48.498;32.260;2023-05-10T07:25:59;15.50;99.90
45319;DHT22;31057;48.498;32.260;2023-05-10T07:28:01;15.50;99.90
45319;DHT22;31057;48.498;32.260;2023-05-10T07:30:03;15.30;99.90
45319;DHT22;31057;48.498;32.260;2023-05-10T07:32:06;15.50;99.90
45319;DHT22;31057;48.498;32.260;2023-05-10T07:34:08;15.40;99.90
45319;DHT22;31057;48.498;32.260;2023-05-10T07:36:10;15.30;99.90
45319;DHT22;31057;48.498;32.260;2023-05-10T07:38:12;15.10;99.90
45319;DHT22;31057;48.498;32.260;2023-05-10T07:40:14;15.20;99.90
45319;DHT22;31057;48.498;32.260;2023-05-10T07:42:15;15.40;99.90
45319;DHT22;31057;48.498;32.260;2023-05-10T07:44:17;15.00;99.90
45319;DHT22;31057;48.498;32.260;2023-05-10T07:46:22;14.60;99.90
45319;DHT22;31057;48.498;32.260;2023-05-10T07:48:25;14.50;99.90
45319;DHT22;31057;48.498;32.260;2023-05-10T07:50:27;14.20;99.90
45319;DHT22;31057;48.498;32.260;2023-05-10T07:52:28;14.00;99.90
45319;DHT22;31057;48.498;32.260;2023-05-10T07:54:30;14.40;99.90
45319;DHT22;31057;48.498;32.260;2023-05-10T07:56:35;14.40;99.90
45319;DHT22;31057;48.498;32.260;2023-05-10T07:58:40;14.40;99.90
45319;DHT22;31057;48.498;32.260;2023-05-10T08:00:42;14.00;99.90
45319;DHT22;31057;48.498;32.260;2023-05-10T08:02:44;13.80;99.90
45319;DHT22;31057;48.498;32.260;2023-05-10T08:04:46;13.60;99.90
45319;DHT22;31057;48.498;32.260;2023-05-10T08:06:47;13.60;99.90
45319;DHT22;31057;48.498;32.260;2023-05-10T08:08:49;13.90;99.90
45319;DHT22;31057;48.498;32.260;2023-05-10T08:10:52;13.70;99.90
45319;DHT22;31057;48.498;32.260;2023-05-10T08:12:54;13.70;99.90
45319;DHT22;31057;48.498;32.260;2023-05-10T08:14:56;13.80;99.90
45319;DHT22;31057;48.498;32.260;2023-05-10T08:16:58;13.80;99.90
45319;DHT22;31057;48.498;32.260;2023-05-10T08:19:00;14.00;99.90
45319;DHT22;31057;48.498;32.260;2023-05-10T08:21:02;14.10;99.90
45319;DHT22;31057;48.498;32.260;2023-05-10T08:23:04;14.00;99.90
45319;DHT22;31057;48.498;32.260;2023-05-10T08:25:06;14.00;99.90
45319;DHT22;31057;48.498;32.260;2023-05-10T08:27:08;14.20;99.90
45319;DHT22;31057;48.498;32.260;2023-05-10T08:29:10;14.10;99.90
45319;DHT22;31057;48.498;32.260;2023-05-10T08:31:12;14.00;99.90
45319;DHT22;31057;48.498;32.260;2023-05-10T08:33:14;14.00;99.90
45319;DHT22;31057;48.498;32.260;2023-05-10T08:35:16;14.40;99.90
45319;DHT22;31057;48.498;32.260;2023-05-10T08:37:18;14.20;99.90
45319;DHT22;31057;48.498;32.260;2023-05-10T08:39:20;13.90;99.90
45319;DHT22;31057;48.498;32.260;2023-05-10T08:41:33;13.90;99.90
45319;DHT22;31057;48.498;32.260;2023-05-10T08:43:35;13.70;99.90
45319;DHT22;31057;48.498;32.260;2023-05-10T08:45:41;13.70;99.90
45319;DHT22;31057;48.498;32.260;2023-05-10T08:47:43;13.80;99.90
45319;DHT22;31057;48.498;32.260;2023-05-10T08:49:47;14.10;99.90
45319;DHT22;31057;48.498;32.260;2023-05-10T08:51:54;13.80;99.90
45319;DHT22;31057;48.498;32.260;2023-05-10T08:53:57;13.60;99.90
45319;DHT22;31057;48.498;32.260;2023-05-10T08:56:00;13.60;99.90
45319;DHT22;31057;48.498;32.260;2023-05-10T08:58:03;13.60;99.90
45319;DHT22;31057;48.498;32.260;2023-05-10T09:00:06;13.50;99.90
45319;DHT22;31057;48.498;32.260;2023-05-10T09:02:10;13.30;99.90
45319;DHT22;31057;48.498;32.260;2023-05-10T09:04:13;13.40;99.90
45319;DHT22;31057;48.498;32.260;2023-05-10T09:06:15;13.50;99.90
45319;DHT22;31057;48.498;32.260;2023-05-10T09:08:17;13.60;99.90
45319;DHT22;31057;48.498;32.260;2023-05-10T09:10:20;14.10;99.90
45319;DHT22;31057;48.498;32.260;2023-05-10T09:12:23;14.50;99.90
45319;DHT22;31057;48.498;32.260;2023-05-10T09:14:25;14.00;99.90
45319;DHT22;31057;48.498;32.260;2023-05-10T09:16:27;14.80;99.90
45319;DHT22;31057;48.498;32.260;2023-05-10T09:18:29;15.20;99.90
45319;DHT22;31057;48.498;32.260;2023-05-10T09:20:31;14.50;99.90
45319;DHT22;31057;48.498;32.260;2023-05-10T09:22:34;15.40;99.90
45319;DHT22;31057;48.498;32.260;2023-05-10T09:24:36;15.10;99.90
45319;DHT22;31057;48.498;32.260;2023-05-10T09:26:48;15.60;99.90
45319;DHT22;31057;48.498;32.260;2023-05-10T09:28:53;15.90;99.90
45319;DHT22;31057;48.498;32.260;2023-05-10T09:30:56;16.20;99.90
45319;DHT22;31057;48.498;32.260;2023-05-10T09:32:58;16.10;99.90
45319;DHT22;31057;48.498;32.260;2023-05-10T09:35:10;16.00;99.90
45319;DHT22;31057;48.498;32.260;2023-05-10T09:37:12;15.80;99.90
45319;DHT22;31057;48.498;32.260;2023-05-10T09:39:14;16.50;99.90
45319;DHT22;31057;48.498;32.260;2023-05-10T09:41:22;16.10;99.90
45319;DHT22;31057;48.498;32.260;2023-05-10T09:43:24;15.70;99.90
45319;DHT22;31057;48.498;32.260;2023-05-10T09:45:31;15.50;99.90
45319;DHT22;31057;48.498;32.260;2023-05-10T09:47:34;16.00;99.90
45319;DHT22;31057;48.498;32.260;2023-05-10T09:49:36;15.30;99.90
45319;DHT22;31057;48.498;32.260;2023-05-10T09:51:38;15.00;99.90
45319;DHT22;31057;48.498;32.260;2023-05-10T09:53:40;15.50;99.90
45319;DHT22;31057;48.498;32.260;2023-05-10T09:55:44;15.90;99.90
45319;DHT22;31057;48.498;32.260;2023-05-10T09:57:47;16.00;99.90
45319;DHT22;31057;48.498;32.260;2023-05-10T09:59:50;15.80;99.90
45319;DHT22;31057;48.498;32.260;2023-05-10T10:01:56;15.90;99.90
45319;DHT22;31057;48.498;32.260;2023-05-10T10:03:58;16.30;99.90
45319;DHT22;31057;48.498;32.260;2023-05-10T10:06:00;15.70;99.90
45319;DHT22;31057;48.498;32.260;2023-05-10T10:08:04;16.00;99.90
45319;DHT22;31057;48.498;32.260;2023-05-10T10:10:07;15.70;99.90
45319;DHT22;31057;48.498;32.260;2023-05-10T10:12:13;16.00;99.90
45319;DHT22;31057;48.498;32.260;2023-05-10T10:14:14;15.80;99.90
45319;DHT22;31057;48.498;32.260;2023-05-10T10:16:17;16.10;99.90
45319;DHT22;31057;48.498;32.260;2023-05-10T10:18:20;16.30;99.90
45319;DHT22;31057;48.498;32.260;2023-05-10T10:20:28;16.30;99.90
45319;DHT22;31057;48.498;32.260;2023-05-10T10:22:30;16.80;99.90
45319;DHT22;31057;48.498;32.260;2023-05-10T10:24:32;16.30;99.90
45319;DHT22;31057;48.498;32.260;2023-05-10T10:26:35;16.20;99.90
45319;DHT22;31057;48.498;32.260;2023-05-10T10:29:04;16.70;99.60
45319;DHT22;31057;48.498;32.260;2023-05-10T10:31:24;17.20;99.90
45319;DHT22;31057;48.498;32.260;2023-05-10T10:36:12;17.50;98.50
45319;DHT22;31057;48.498;32.260;2023-05-10T10:38:14;17.10;99.70
45319;DHT22;31057;48.498;32.260;2023-05-10T10:42:44;16.60;98.20
45319;DHT22;31057;48.498;32.260;2023-05-10T10:44:47;17.40;99.60
45319;DHT22;31057;48.498;32.260;2023-05-10T10:49:10;17.50;98.80
45319;DHT22;31057;48.498;32.260;2023-05-10T10:51:13;16.80;97.90
45319;DHT22;31057;48.498;32.260;2023-05-10T10:53:15;16.40;98.00
45319;DHT22;31057;48.498;32.260;2023-05-10T10:55:18;16.10;98.60
45319;DHT22;31057;48.498;32.260;2023-05-10T10:57:22;16.20;99.20
45319;DHT22;31057;48.498;32.260;2023-05-10T10:59:27;16.80;99.20
45319;DHT22;31057;48.498;32.260;2023-05-10T11:01:33;16.60;99.60
45319;DHT22;31057;48.498;32.260;2023-05-10T11:03:38;16.70;99.10
45319;DHT22;31057;48.498;32.260;2023-05-10T11:05:50;16.40;98.90
45319;DHT22;31057;48.498;32.260;2023-05-10T11:08:00;16.80;99.20
45319;DHT22;31057;48.498;32.260;2023-05-10T11:10:05;16.20;99.80
45319;DHT22;31057;48.498;32.260;2023-05-10T11:12:08;16.30;99.60
45319;DHT22;31057;48.498;32.260;2023-05-10T11:14:10;16.00;99.00
45319;DHT22;31057;48.498;32.260;2023-05-10T11:18:28;16.10;99.00
45319;DHT22;31057;48.498;32.260;2023-05-10T11:20:38;16.40;99.10
45319;DHT22;31057;48.498;32.260;2023-05-10T11:22:50;16.30;99.70
45319;DHT22;31057;48.498;32.260;2023-05-10T11:24:57;16.50;99.50
45319;DHT22;31057;48.498;32.260;2023-05-10T11:27:00;15.90;99.20
45319;DHT22;31057;48.498;32.260;2023-05-10T11:29:02;15.90;99.60
45319;DHT22;31057;48.498;32.260;2023-05-10T11:31:06;15.80;99.80
45319;DHT22;31057;48.498;32.260;2023-05-10T11:33:09;15.70;99.00
45319;DHT22;31057;48.498;32.260;2023-05-10T11:35:11;15.60;99.00
45319;DHT22;31057;48.498;32.260;2023-05-10T11:37:13;15.70;99.20
45319;DHT22;31057;48.498;32.260;2023-05-10T11:39:15;15.50;98.20
45319;DHT22;31057;48.498;32.260;2023-05-10T11:41:18;15.30;98.70
45319;DHT22;31057;48.498;32.260;2023-05-10T11:43:24;15.70;99.50
45319;DHT22;31057;48.498;32.260;2023-05-10T11:45:33;15.70;99.40
45319;DHT22;31057;48.498;32.260;2023-05-10T11:47:35;15.10;98.30
45319;DHT22;31057;48.498;32.260;2023-05-10T11:49:38;15.10;98.30
45319;DHT22;31057;48.498;32.260;2023-05-10T11:51:40;15.30;99.20
45319;DHT22;31057;48.498;32.260;2023-05-10T11:53:45;15.30;97.60
45319;DHT22;31057;48.498;32.260;2023-05-10T11:55:47;15.30;97.80
45319;DHT22;31057;48.498;32.260;2023-05-10T11:58:00;15.30;96.10
45319;DHT22;31057;48.498;32.260;2023-05-10T12:00:03;15.50;97.20
45319;DHT22;31057;48.498;32.260;2023-05-10T12:02:05;15.90;96.80
45319;DHT22;31057;48.498;32.260;2023-05-10T12:04:07;15.50;94.60
45319;DHT22;31057;48.498;32.260;2023-05-10T12:06:09;15.20;94.20
45319;DHT22;31057;48.498;32.260;2023-05-10T12:08:15;15.80;94.40
45319;DHT22;31057;48.498;32.260;2023-05-10T12:10:25;16.00;94.40
45319;DHT22;31057;48.498;32.260;2023-05-10T12:12:41;15.90;92.30
45319;DHT22;31057;48.498;32.260;2023-05-10T12:14:44;15.60;92.10
45319;DHT22;31057;48.498;32.260;2023-05-10T12:16:50;15.80;92.30
45319;DHT22;31057;48.498;32.260;2023-05-10T12:18:54;16.30;92.90
45319;DHT22;31057;48.498;32.260;2023-05-10T12:21:03;16.40;92.90
45319;DHT22;31057;48.498;32.260;2023-05-10T12:23:05;16.60;92.10
45319;DHT22;31057;48.498;32.260;2023-05-10T12:25:08;16.30;91.80
45319;DHT22;31057;48.498;32.260;2023-05-10T12:27:10;16.00;91.70
45319;DHT22;31057;48.498;32.260;2023-05-10T12:29:18;16.20;92.90
45319;DHT22;31057;48.498;32.260;2023-05-10T12:31:20;15.90;92.70
45319;DHT22;31057;48.498;32.260;2023-05-10T12:33:23;16.20;92.90
45319;DHT22;31057;48.498;32.260;2023-05-10T12:35:24;16.00;91.90
45319;DHT22;31057;48.498;32.260;2023-05-10T12:37:27;15.90;90.80
45319;DHT22;31057;48.498;32.260;2023-05-10T12:39:43;15.80;91.00
45319;DHT22;31057;48.498;32.260;2023-05-10T12:41:45;15.80;88.60
45319;DHT22;31057;48.498;32.260;2023-05-10T12:43:47;16.00;90.00
45319;DHT22;31057;48.498;32.260;2023-05-10T12:45:49;15.90;89.40
45319;DHT22;31057;48.498;32.260;2023-05-10T12:47:51;16.00;89.10
45319;DHT22;31057;48.498;32.260;2023-05-10T12:49:53;16.00;90.00
45319;DHT22;31057;48.498;32.260;2023-05-10T12:51:55;16.10;87.80
45319;DHT22;31057;48.498;32.260;2023-05-10T12:53:57;16.00;88.50
45319;DHT22;31057;48.498;32.260;2023-05-10T12:55:59;15.80;87.50
45319;DHT22;31057;48.498;32.260;2023-05-10T12:58:01;16.00;88.70
45319;DHT22;31057;48.498;32.260;2023-05-10T13:00:03;16.60;88.00
45319;DHT22;31057;48.498;32.260;2023-05-10T13:02:23;16.80;87.60
45319;DHT22;31057;48.498;32.260;2023-05-10T13:04:25;16.60;87.20
45319;DHT22;31057;48.498;32.260;2023-05-10T13:06:27;16.30;87.20
45319;DHT22;31057;48.498;32.260;2023-05-10T13:08:29;16.40;86.50
45319;DHT22;31057;48.498;32.260;2023-05-10T13:10:35;16.20;85.70
45319;DHT22;31057;48.498;32.260;2023-05-10T13:12:37;16.20;86.10
45319;DHT22;31057;48.498;32.260;2023-05-10T13:14:39;16.20;85.90
45319;DHT22;31057;48.498;32.260;2023-05-10T13:16:42;16.30;85.30